createdAt,value
2022-08-03T06:14:42.337Z,59.11
2022-08-03T07:19:06.698Z,47.20
2022-08-03T07:29:15.208Z,43.91
2022-08-03T07:39:24.384Z,33.90
2022-08-03T07:49:34.381Z,26.83
2022-08-03T07:59:56.764Z,24.95
2022-08-03T08:09:54.895Z,23.56
2022-08-03T08:20:02.046Z,22.75
2022-08-03T08:30:12.186Z,24.26
2022-08-03T08:40:20.393Z,22.12
2022-08-03T08:51:59.391Z,22.84
2022-08-03T09:01:57.630Z,22.86
2022-08-03T09:12:27.205Z,22.87
2022-08-03T09:22:16.708Z,22.63
2022-08-03T09:35:06.459Z,24.47
2022-08-03T09:49:14.880Z,23.21
2022-08-03T09:59:22.371Z,22.83
2022-08-03T10:09:30.493Z,25.24
2022-08-03T10:19:39.406Z,25.31
2022-08-03T11:00:21.626Z,21.78
2022-08-03T11:11:53.675Z,22.85
2022-08-03T11:24:05.421Z,23.35
2022-08-03T11:33:40.492Z,21.41
2022-08-03T11:43:48.952Z,23.43
2022-08-03T11:53:56.405Z,20.01
2022-08-03T12:04:03.566Z,20.29
2022-08-03T12:14:51.064Z,19.72
2022-08-03T12:24:23.770Z,19.28
2022-08-03T12:37:20.302Z,18.62
2022-08-03T12:51:21.765Z,21.93
2022-08-03T13:03:00.534Z,19.80
2022-08-03T13:17:01.844Z,19.69
2022-08-03T13:49:38.711Z,21.24
2022-08-03T13:59:45.420Z,21.22
2022-08-03T14:09:52.350Z,22.10
2022-08-03T14:38:34.378Z,23.27
2022-08-03T15:11:13.451Z,25.27
2022-08-03T15:22:39.507Z,25.71
2022-08-03T15:34:12.395Z,25.37
2022-08-03T15:49:38.747Z,28.25
2022-08-03T16:01:03.850Z,27.47
2022-08-03T16:11:10.132Z,28.16
2022-08-03T16:21:19.488Z,28.19
2022-08-03T16:31:27.428Z,31.01
2022-08-03T16:41:53.747Z,28.58
2022-08-03T16:51:50.639Z,29.61
2022-08-03T17:13:53.872Z,32.33
2022-08-03T17:25:22.208Z,33.66
2022-08-03T18:22:02.921Z,53.31
2022-08-03T19:39:35.560Z,70.93
2022-08-03T20:21:28.374Z,79.40
2022-08-03T22:32:05.008Z,89.94
2022-08-03T22:46:15.553Z,90.82
